Tuktoyaktuk, Canada
Current Conditions -  °F | °C
As of 4:00 PM on Wednesday 17 Dec 2014 (Local Time) from CYUB Reporting Station
Light Snow Light Snow  
Wind Chill:   Ceiling: 1200
Heat Index:   Visibility: 6mi
Dew Point: -4°   Wind: 3mph
Humidity: 66%   Direction: 80°E
Pressure: 29.75"   Gusts: NA
Location:  69.45°N, 133.03°W
Report Text: CYUB 172300Z 08003KT 6SM -SN OVC012 M15/M20 A2975 RMK SC8SLP076
Loading
Personal Weather Stations






























Interactive Weather Map New forecast layout! Learn more

10-Day Weather Forecast

Advertisements
Track Severe Weather on mobile